createdAt,value
2018-05-02T05:46:55.168Z,95052.59
2018-05-02T05:49:21.647Z,95051.78
2018-05-02T05:51:48.036Z,95058.88
2018-05-02T05:54:14.498Z,95054.39
2018-05-02T05:56:41.012Z,95061.48
2018-05-02T05:59:07.509Z,95066.16
2018-05-02T06:01:34.005Z,95059.08
2018-05-02T06:04:00.483Z,95056.95
2018-05-02T06:06:26.906Z,95060.24
2018-05-02T06:08:53.272Z,95059.86
2018-05-02T06:11:19.724Z,95060.70
2018-05-02T06:13:46.064Z,95061.26
2018-05-02T06:16:12.509Z,95062.36
2018-05-02T06:18:38.905Z,95060.37
2018-05-02T06:21:05.287Z,95060.95
2018-05-02T06:23:31.778Z,95060.67
2018-05-02T06:25:58.206Z,95057.45
2018-05-02T06:28:24.683Z,95050.38
2018-05-02T06:30:51.081Z,95051.36
2018-05-02T06:33:17.493Z,95045.76
2018-05-02T06:35:44.028Z,95051.42
2018-05-02T06:38:10.439Z,95045.83
2018-05-02T06:40:36.856Z,95037.39
2018-05-02T06:43:03.344Z,95042.58
2018-05-02T06:45:29.712Z,95039.58
2018-05-02T06:47:56.180Z,95032.11
2018-05-02T06:50:22.726Z,95035.56
2018-05-02T06:52:49.239Z,95037.14
2018-05-02T06:55:15.673Z,95038.21
2018-05-02T06:57:42.100Z,95040.17
2018-05-02T07:00:08.573Z,95040.23
2018-05-02T07:02:34.989Z,95032.94
2018-05-02T07:05:01.384Z,95035.56
2018-05-02T07:07:27.829Z,95035.45
2018-05-02T07:09:54.276Z,95031.41
2018-05-02T07:12:20.685Z,95033.38
2018-05-02T07:14:47.136Z,95030.28
2018-05-02T07:17:13.600Z,95026.73
2018-05-02T07:19:40.091Z,95030.45
2018-05-02T07:22:06.520Z,95030.25
2018-05-02T07:24:33.022Z,95029.80
2018-05-02T07:26:59.502Z,95030.73
2018-05-02T07:29:26.217Z,95033.23
2018-05-02T07:31:52.748Z,95030.57
2018-05-02T07:34:19.256Z,95026.28
2018-05-02T07:36:45.619Z,95024.01
2018-05-02T07:39:12.097Z,95020.75
2018-05-02T07:41:38.518Z,95013.05
2018-05-02T07:44:04.932Z,95009.07
2018-05-02T07:46:31.380Z,95010.48
2018-05-02T07:48:57.810Z,95007.16
2018-05-02T07:51:24.260Z,95005.36
2018-05-02T07:53:50.684Z,95003.70
2018-05-02T07:56:17.060Z,95000.81
2018-05-02T07:58:43.519Z,95001.82
2018-05-02T08:01:09.900Z,95000.69
2018-05-02T08:03:36.481Z,94997.14
2018-05-02T08:06:02.872Z,94993.28
2018-05-02T08:08:29.309Z,94986.04
2018-05-02T08:10:55.741Z,94981.22
2018-05-02T08:13:22.174Z,94977.92
2018-05-02T08:15:48.667Z,94982.91
2018-05-02T08:18:15.110Z,94973.37
2018-05-02T08:20:41.601Z,94975.55
2018-05-02T08:23:07.969Z,94972.20
2018-05-02T08:25:34.426Z,94972.65
2018-05-02T08:28:00.864Z,94972.27
2018-05-02T08:30:27.299Z,94973.81
2018-05-02T08:32:53.827Z,94967.33
2018-05-02T08:35:20.209Z,94965.39
2018-05-02T08:37:46.641Z,94956.64
2018-05-02T08:40:13.087Z,94958.88
2018-05-02T08:42:39.720Z,94959.94
2018-05-02T08:45:06.200Z,94960.69
2018-05-02T08:47:32.708Z,94958.91
2018-05-02T08:49:59.187Z,94952.05
2018-05-02T08:52:25.528Z,94957.42
2018-05-02T08:54:52.004Z,94956.55
2018-05-02T08:57:18.510Z,94949.31
2018-05-02T08:59:44.844Z,94953.55
2018-05-02T09:02:11.284Z,94954.42
2018-05-02T09:04:37.660Z,94948.94
2018-05-02T09:07:04.081Z,94951.57
2018-05-02T09:09:30.496Z,94951.64
2018-05-02T09:11:56.947Z,94953.49
2018-05-02T09:14:23.393Z,94949.25
2018-05-02T09:16:49.752Z,94954.08
2018-05-02T09:19:16.101Z,94946.30
2018-05-02T09:21:42.504Z,94943.48
2018-05-02T09:24:08.893Z,94945.75
2018-05-02T09:26:35.337Z,94939.05
2018-05-02T09:29:01.728Z,94942.52
2018-05-02T09:31:28.204Z,94930.99
2018-05-02T09:33:54.591Z,94939.97
2018-05-02T09:36:20.979Z,94922.56
2018-05-02T09:38:47.379Z,94924.39
2018-05-02T09:41:13.746Z,94926.05
2018-05-02T09:43:40.239Z,94918.36
2018-05-02T09:46:06.612Z,94919.52
2018-05-02T09:48:33.056Z,94912.27
2018-05-02T09:50:59.437Z,94914.26
2018-05-02T09:53:25.923Z,94913.93
2018-05-02T09:55:52.399Z,94907.41
2018-05-02T09:58:18.874Z,94907.81
2018-05-02T10:00:45.270Z,94899.02
2018-05-02T10:03:11.680Z,94906.95
2018-05-02T10:05:38.175Z,94898.50
2018-05-02T10:08:04.639Z,94894.72
2018-05-02T10:10:31.111Z,94887.47
2018-05-02T10:12:57.595Z,94886.15
2018-05-02T10:15:24.029Z,94889.88
2018-05-02T10:17:50.443Z,94885.63
2018-05-02T10:20:17.126Z,94881.00
2018-05-02T10:22:43.716Z,94879.00
2018-05-02T10:25:10.265Z,94879.11
2018-05-02T10:27:36.723Z,94874.45
2018-05-02T10:30:03.332Z,94879.77
2018-05-02T10:32:29.877Z,94871.80
2018-05-02T10:34:56.482Z,94880.19
2018-05-02T10:37:23.569Z,94871.86
2018-05-02T10:39:50.144Z,94870.93
2018-05-02T10:42:16.537Z,94872.94
2018-05-02T10:44:42.892Z,94863.52
2018-05-02T10:47:09.371Z,94865.03
2018-05-02T10:49:35.812Z,94857.91
2018-05-02T10:52:02.339Z,94863.67
2018-05-02T10:54:28.788Z,94855.52
2018-05-02T10:56:55.275Z,94853.98
2018-05-02T10:59:21.707Z,94854.63
2018-05-02T11:01:48.663Z,94852.77
2018-05-02T11:04:15.036Z,94843.58
2018-05-02T11:06:41.609Z,94845.02
2018-05-02T11:09:08.068Z,94852.27
2018-05-02T11:11:34.598Z,94843.23
2018-05-02T11:14:01.120Z,94842.02
2018-05-02T11:16:29.890Z,94843.17
2018-05-02T11:18:56.592Z,94842.02
2018-05-02T11:21:22.949Z,94839.00
2018-05-02T11:23:49.809Z,94836.52
2018-05-02T11:26:16.200Z,94834.55
2018-05-02T11:28:42.695Z,94828.02
2018-05-02T11:31:09.216Z,94829.61
2018-05-02T11:33:35.576Z,94822.80
2018-05-02T11:36:02.007Z,94818.87
2018-05-02T11:38:28.532Z,94821.01
2018-05-02T11:40:54.948Z,94815.06
2018-05-02T11:43:21.427Z,94806.16
2018-05-02T11:45:47.948Z,94808.08
2018-05-02T11:48:14.401Z,94806.20
2018-05-02T11:50:40.835Z,94793.92
2018-05-02T11:53:07.240Z,94791.20
2018-05-02T11:55:33.615Z,94794.75
2018-05-02T11:58:00.044Z,94783.39
2018-05-02T12:00:26.482Z,94777.70
2018-05-02T12:02:53.052Z,94769.69
2018-05-02T12:05:19.614Z,94758.35
2018-05-02T12:07:46.667Z,94759.65
2018-05-02T12:10:13.177Z,94762.69
2018-05-02T12:12:39.596Z,94760.33
2018-05-02T12:15:06.097Z,94746.23
2018-05-02T12:17:32.515Z,94739.63
2018-05-02T12:19:58.984Z,94743.56
2018-05-02T12:22:25.420Z,94742.40
2018-05-02T12:24:51.951Z,94738.75
2018-05-02T12:27:18.485Z,94738.78
2018-05-02T12:29:45.047Z,94730.39
2018-05-02T12:32:11.406Z,94729.99
2018-05-02T12:34:37.831Z,94727.45
2018-05-02T12:37:04.204Z,94721.97
2018-05-02T12:39:30.620Z,94727.91
2018-05-02T12:41:57.016Z,94717.75
2018-05-02T12:44:23.371Z,94707.44
2018-05-02T12:46:49.815Z,94699.83
2018-05-02T12:49:16.171Z,94701.53
2018-05-02T12:51:42.701Z,94690.88
2018-05-02T12:54:09.332Z,94686.39
2018-05-02T12:56:35.897Z,94684.36
2018-05-02T12:59:02.432Z,94683.93
2018-05-02T13:01:28.892Z,94685.27
2018-05-02T13:03:55.309Z,94683.08
2018-05-02T13:06:21.768Z,94684.17
2018-05-02T13:08:48.151Z,94688.75
2018-05-02T13:11:14.680Z,94682.53
2018-05-02T13:13:41.188Z,94679.14
2018-05-02T13:16:07.651Z,94683.71
2018-05-02T13:18:34.088Z,94678.67
2018-05-02T13:21:00.660Z,94674.53
2018-05-02T13:23:27.177Z,94669.28
2018-05-02T13:25:53.553Z,94664.88
2018-05-02T13:28:20.200Z,94666.91
2018-05-02T13:30:46.721Z,94670.91
2018-05-02T13:33:13.205Z,94660.76
2018-05-02T13:35:39.536Z,94662.35
2018-05-02T13:38:05.911Z,94667.72
2018-05-02T13:40:33.483Z,94663.83
2018-05-02T13:43:00.196Z,94666.25
2018-05-02T13:45:26.688Z,94674.42
2018-05-02T13:47:53.249Z,94673.83
2018-05-02T13:50:19.804Z,94663.94
2018-05-02T13:52:46.264Z,94670.02
2018-05-02T13:55:12.698Z,94659.97
2018-05-02T13:57:39.089Z,94666.31
2018-05-02T14:00:05.629Z,94665.40
2018-05-02T14:02:32.081Z,94673.75
2018-05-02T14:04:58.498Z,94670.38
2018-05-02T14:07:24.976Z,94673.45
2018-05-02T14:09:51.424Z,94676.39
2018-05-02T14:12:17.790Z,94675.86
2018-05-02T14:14:44.224Z,94687.45
2018-05-02T14:17:10.609Z,94683.31
2018-05-02T14:19:37.125Z,94684.22
2018-05-02T14:22:03.548Z,94690.73
2018-05-02T14:24:29.901Z,94686.02
2018-05-02T14:26:56.394Z,94686.02
2018-05-02T14:29:22.836Z,94696.37
2018-05-02T14:31:49.264Z,94698.13
2018-05-02T14:34:15.668Z,94705.20
2018-05-02T14:36:42.103Z,94708.64
2018-05-02T14:39:08.588Z,94707.02
2018-05-02T14:41:34.941Z,94697.37
2018-05-02T14:44:01.360Z,94698.84
2018-05-02T14:46:27.742Z,94709.92
2018-05-02T14:48:54.128Z,94707.43
2018-05-02T14:51:20.561Z,94704.94
2018-05-02T14:53:46.993Z,94704.79
2018-05-02T14:56:13.345Z,94707.68
2018-05-02T14:58:39.728Z,94704.56
2018-05-02T15:01:06.209Z,94712.90
2018-05-02T15:03:32.702Z,94721.30
2018-05-02T15:05:59.151Z,94721.03
2018-05-02T15:08:25.533Z,94721.70
2018-05-02T15:10:51.958Z,94719.87
2018-05-02T15:13:18.381Z,94725.62
2018-05-02T15:15:44.791Z,94727.83
2018-05-02T15:18:11.225Z,94727.68
2018-05-02T15:20:37.631Z,94738.20
2018-05-02T15:23:04.093Z,94740.16
2018-05-02T15:25:30.536Z,94736.55
2018-05-02T15:27:57.019Z,94740.84
2018-05-02T15:30:23.472Z,94742.34
2018-05-02T15:32:49.859Z,94747.63
2018-05-02T15:35:16.244Z,94750.23
2018-05-02T15:37:43.542Z,94758.65
2018-05-02T15:40:10.027Z,94748.42
2018-05-02T15:42:36.404Z,94751.58
2018-05-02T15:45:02.852Z,94753.97
2018-05-02T15:47:29.351Z,94760.45
2018-05-02T15:49:55.711Z,94758.70
2018-05-02T15:52:22.124Z,94762.23
2018-05-02T15:54:48.524Z,94760.84
2018-05-02T15:57:15.037Z,94756.45
2018-05-02T15:59:42.292Z,94758.78
2018-05-02T16:02:09.009Z,94763.92
2018-05-02T16:04:35.656Z,94764.83
2018-05-02T16:07:02.063Z,94767.38
2018-05-02T16:09:28.481Z,94767.69
2018-05-02T16:11:54.917Z,94769.90
2018-05-02T16:14:21.468Z,94772.45
2018-05-02T16:16:47.910Z,94767.78
2018-05-02T16:19:14.436Z,94765.45
2018-05-02T16:21:41.044Z,94770.13
2018-05-02T16:24:07.504Z,94766.66
2018-05-02T16:26:34.061Z,94768.30
2018-05-02T16:29:00.532Z,94767.70
2018-05-02T16:31:27.017Z,94761.30
2018-05-02T16:33:53.716Z,94768.28
2018-05-02T16:36:20.129Z,94771.06
2018-05-02T16:38:46.515Z,94767.47
2018-05-02T16:41:12.920Z,94771.94
2018-05-02T16:43:39.381Z,94771.87
2018-05-02T16:46:05.932Z,94775.45
2018-05-02T16:48:32.361Z,94773.33
2018-05-02T16:50:59.237Z,94765.98
2018-05-02T16:53:25.955Z,94762.63
2018-05-02T16:55:52.449Z,94762.90
2018-05-02T16:58:18.921Z,94760.64
2018-05-02T17:00:45.382Z,94750.94
2018-05-02T17:03:12.062Z,94752.47
2018-05-02T17:05:38.528Z,94750.58
2018-05-02T17:08:04.908Z,94751.28
2018-05-02T17:10:31.501Z,94753.30
2018-05-02T17:12:57.928Z,94762.95
2018-05-02T17:15:24.462Z,94760.31
2018-05-02T17:17:51.202Z,94754.55
2018-05-02T17:20:17.701Z,94763.88
2018-05-02T17:22:44.725Z,94761.14
2018-05-02T17:25:11.213Z,94760.94
2018-05-02T17:27:37.736Z,94762.09
2018-05-02T17:30:04.358Z,94762.61
2018-05-02T17:32:30.792Z,94768.44
2018-05-02T17:34:57.244Z,94763.67
2018-05-02T17:37:23.596Z,94767.75
2018-05-02T17:39:50.104Z,94768.78
2018-05-02T17:42:16.560Z,94770.05
2018-05-02T17:44:43.002Z,94769.44
2018-05-02T17:55:38.842Z,94776.36
2018-05-02T17:58:05.405Z,94777.77
2018-05-02T18:00:31.908Z,94773.15
2018-05-02T18:02:58.345Z,94780.83
2018-05-02T18:05:24.884Z,94781.50
2018-05-02T18:07:51.248Z,94785.75
2018-05-02T18:10:17.682Z,94779.31
2018-05-02T18:12:44.172Z,94779.86
2018-05-02T18:15:10.632Z,94781.84
2018-05-02T18:17:37.138Z,94778.74
2018-05-02T18:20:03.668Z,94775.64
2018-05-02T18:22:30.210Z,94781.49
2018-05-02T18:24:56.661Z,94786.74
2018-05-02T18:27:23.196Z,94795.97
2018-05-02T18:29:49.660Z,94797.90
2018-05-02T18:32:16.062Z,94796.19
2018-05-02T18:34:42.597Z,94801.78
2018-05-02T18:37:09.010Z,94796.73
2018-05-02T18:39:35.474Z,94801.42
2018-05-02T18:42:01.878Z,94810.48
2018-05-02T18:44:28.403Z,94807.82
2018-05-02T18:46:54.853Z,94806.14
2018-05-02T18:49:21.389Z,94813.81
2018-05-02T18:51:47.932Z,94803.00
2018-05-02T18:54:14.323Z,94814.62
2018-05-02T18:56:40.911Z,94813.35
2018-05-02T18:59:07.456Z,94817.52
2018-05-02T19:01:33.925Z,94818.00
2018-05-02T19:04:00.396Z,94818.28
2018-05-02T19:06:26.827Z,94819.55
2018-05-02T19:08:53.244Z,94824.45
2018-05-02T19:11:19.725Z,94821.13
2018-05-02T19:13:52.460Z,94827.00
2018-05-02T19:16:19.013Z,94820.48
2018-05-02T19:18:51.681Z,94820.28
2018-05-02T19:21:18.092Z,94824.31
2018-05-02T19:23:44.529Z,94821.61
2018-05-02T19:26:17.108Z,94822.46
2018-05-02T19:28:43.724Z,94821.09
2018-05-02T19:31:16.310Z,94828.25
2018-05-02T19:33:48.775Z,94824.55
2018-05-02T19:36:15.264Z,94816.63
2018-05-02T19:38:41.778Z,94821.89
2018-05-02T19:41:14.232Z,94815.42
2018-05-02T19:43:46.712Z,94815.98
2018-05-02T19:46:13.155Z,94817.31
2018-05-02T19:48:39.706Z,94804.74
2018-05-02T19:51:12.104Z,94810.42
2018-05-02T19:53:38.596Z,94806.80
2018-05-02T19:56:05.037Z,94807.99
2018-05-02T19:58:31.530Z,94801.12
2018-05-02T20:01:04.505Z,94804.62
2018-05-02T20:03:30.991Z,94796.81
2018-05-02T20:05:57.516Z,94801.53
2018-05-02T20:08:29.941Z,94802.37
2018-05-02T20:11:02.646Z,94797.38
2018-05-02T20:13:36.917Z,94798.83
2018-05-02T20:16:04.628Z,94801.23
2018-05-02T20:18:31.127Z,94793.35
2018-05-02T20:20:57.578Z,94797.34
2018-05-02T20:23:24.032Z,94793.75
2018-05-02T20:25:50.615Z,94800.80
2018-05-02T20:28:17.035Z,94790.73
2018-05-02T20:30:43.530Z,94796.40
2018-05-02T20:33:09.860Z,94790.33
2018-05-02T20:35:36.264Z,94785.53
2018-05-02T20:38:02.860Z,94782.34
2018-05-02T20:40:29.293Z,94779.28
2018-05-02T20:42:55.907Z,94779.04
2018-05-02T20:45:22.396Z,94781.08
2018-05-02T20:47:48.987Z,94785.75
2018-05-02T20:50:15.391Z,94788.05
2018-05-02T20:52:41.864Z,94794.21
2018-05-02T20:55:08.386Z,94783.02
2018-05-02T20:57:34.659Z,94795.78
2018-05-02T21:00:01.117Z,94795.94
2018-05-02T21:02:27.620Z,94792.98
2018-05-02T21:04:54.160Z,94798.07
2018-05-02T21:07:20.686Z,94799.06
2018-05-02T21:09:47.120Z,94795.78
2018-05-02T21:12:13.543Z,94809.68
2018-05-02T21:14:40.008Z,94809.31
2018-05-02T21:17:06.455Z,94815.19
2018-05-02T21:19:32.849Z,94819.30
2018-05-02T21:21:59.431Z,94818.91
2018-05-02T21:24:25.919Z,94824.51
2018-05-02T21:26:52.285Z,94820.70
2018-05-02T21:29:18.852Z,94834.34
2018-05-02T21:31:45.360Z,94827.45
2018-05-02T21:34:11.736Z,94835.78
2018-05-02T21:36:38.128Z,94827.41
2018-05-02T21:39:04.708Z,94826.61
2018-05-02T21:41:31.168Z,94836.44
2018-05-02T21:43:57.676Z,94836.05
2018-05-02T21:46:24.151Z,94837.06
2018-05-02T21:48:50.652Z,94830.67
2018-05-02T21:51:17.132Z,94835.27
2018-05-02T21:53:43.596Z,94833.59
2018-05-02T21:56:10.280Z,94831.59
2018-05-02T21:58:36.735Z,94829.06
2018-05-02T22:01:03.301Z,94832.70
2018-05-02T22:03:29.721Z,94835.38
2018-05-02T22:05:56.254Z,94830.85
2018-05-02T22:08:22.644Z,94827.33
2018-05-02T22:10:49.124Z,94824.93
2018-05-02T22:13:15.596Z,94826.60
2018-05-02T22:15:42.004Z,94820.27
2018-05-02T22:18:08.521Z,94825.46
2018-05-02T22:20:34.956Z,94829.48
2018-05-02T22:23:01.408Z,94833.67
2018-05-02T22:25:27.793Z,94833.64
2018-05-02T22:27:54.236Z,94842.35
2018-05-02T22:30:20.608Z,94833.39
2018-05-02T22:32:47.027Z,94836.00
2018-05-02T22:35:13.455Z,94836.83
2018-05-02T22:37:40.040Z,94835.81
2018-05-02T22:40:06.544Z,94835.95
2018-05-02T22:42:32.993Z,94830.45
2018-05-02T22:44:59.513Z,94834.31
2018-05-02T22:47:26.040Z,94835.64
2018-05-02T22:49:52.424Z,94831.06
2018-05-02T22:52:18.876Z,94829.11
2018-05-02T22:54:45.448Z,94826.05
2018-05-02T22:57:11.926Z,94833.95
2018-05-02T22:59:38.399Z,94831.14
2018-05-02T23:02:04.944Z,94839.27
2018-05-02T23:04:31.519Z,94836.20
2018-05-02T23:06:58.056Z,94830.92
2018-05-02T23:09:24.513Z,94827.00
2018-05-02T23:11:50.915Z,94827.75
2018-05-02T23:14:17.403Z,94830.34
2018-05-02T23:16:43.859Z,94832.16
2018-05-02T23:19:10.341Z,94833.55
2018-05-02T23:21:36.779Z,94834.09
2018-05-02T23:24:03.272Z,94822.02
2018-05-02T23:26:29.727Z,94818.45
2018-05-02T23:28:56.219Z,94818.17
2018-05-02T23:31:22.659Z,94822.45
2018-05-02T23:33:49.019Z,94816.52
2018-05-02T23:36:15.504Z,94820.66
2018-05-02T23:38:41.933Z,94822.97
2018-05-02T23:41:08.456Z,94814.33
2018-05-02T23:43:34.891Z,94813.83
2018-05-02T23:46:01.337Z,94821.30
2018-05-02T23:48:27.820Z,94824.11
2018-05-02T23:50:54.336Z,94825.66
2018-05-02T23:53:20.811Z,94822.55
2018-05-02T23:55:47.336Z,94821.16
2018-05-02T23:58:13.962Z,94820.11
